createdAt,value
2022-10-01T00:00:36.515Z,12.70
2022-10-01T00:01:19.317Z,12.40
2022-10-01T00:02:01.141Z,12.90
2022-10-01T00:02:42.987Z,12.50
2022-10-01T00:03:26.426Z,12.20
2022-10-01T00:04:10.809Z,12.30
2022-10-01T00:04:52.443Z,12.50
2022-10-01T00:05:34.070Z,12.60
2022-10-01T00:06:21.049Z,12.40
2022-10-01T00:07:04.640Z,12.20
2022-10-01T00:07:47.051Z,12.20
2022-10-01T00:08:30.141Z,12.30
2022-10-01T00:09:11.913Z,12.40
2022-10-01T00:09:56.310Z,12.40
2022-10-01T00:10:42.150Z,12.30
2022-10-01T00:11:25.670Z,12.30
2022-10-01T00:12:07.962Z,13.30
2022-10-01T00:12:49.586Z,12.30
2022-10-01T00:13:31.268Z,13.00
2022-10-01T00:14:12.907Z,12.20
2022-10-01T00:14:54.534Z,12.60
2022-10-01T00:15:39.756Z,12.40
2022-10-01T00:16:25.241Z,12.40
2022-10-01T00:17:07.046Z,12.40
2022-10-01T00:17:48.741Z,12.20
2022-10-01T00:18:30.952Z,12.30
2022-10-01T00:19:14.902Z,12.80
2022-10-01T00:19:56.550Z,12.60
2022-10-01T00:20:43.371Z,12.30
2022-10-01T00:21:27.947Z,12.40
2022-10-01T00:22:09.593Z,12.30
2022-10-01T00:22:52.288Z,12.40
2022-10-01T00:23:36.874Z,12.40
2022-10-01T00:24:18.729Z,12.30
2022-10-01T00:25:00.488Z,12.30
2022-10-01T00:25:43.558Z,12.50
2022-10-01T00:26:28.862Z,13.00
2022-10-01T00:27:10.582Z,12.80
2022-10-01T00:27:52.283Z,12.10
2022-10-01T00:28:33.924Z,12.30
2022-10-01T00:29:15.793Z,12.80
2022-10-01T00:30:00.342Z,12.50
2022-10-01T00:30:48.218Z,12.50
2022-10-01T00:31:30.766Z,12.40
2022-10-01T00:32:12.590Z,13.10
2022-10-01T00:32:55.417Z,12.60
2022-10-01T00:33:38.401Z,12.90
2022-10-01T00:34:20.101Z,12.20
2022-10-01T00:35:03.220Z,12.40
2022-10-01T00:35:44.869Z,12.30
2022-10-01T00:36:27.165Z,12.70
2022-10-01T00:37:10.293Z,12.30
2022-10-01T00:37:52.345Z,12.20
2022-10-01T00:38:34.548Z,13.20
2022-10-01T00:39:16.288Z,12.30
2022-10-01T00:39:57.989Z,12.50
2022-10-01T00:40:39.611Z,12.70
2022-10-01T00:41:21.262Z,12.70
2022-10-01T00:42:17.191Z,12.20
2022-10-01T00:42:59.046Z,12.40
2022-10-01T00:43:50.604Z,12.40
2022-10-01T00:44:35.773Z,12.30
2022-10-01T00:45:17.522Z,12.80
2022-10-01T00:46:21.655Z,12.30
2022-10-01T00:47:32.574Z,12.30
2022-10-01T00:48:14.800Z,12.40
2022-10-01T00:49:08.659Z,13.00
2022-10-01T00:49:57.455Z,12.30
2022-10-01T00:50:41.201Z,12.30
2022-10-01T00:51:23.205Z,12.20
2022-10-01T00:52:13.159Z,12.90
2022-10-01T00:52:59.208Z,12.50
2022-10-01T00:53:41.945Z,12.20
2022-10-01T00:54:31.133Z,12.20
2022-10-01T00:55:37.624Z,12.20
2022-10-01T00:56:19.273Z,12.00
2022-10-01T00:57:02.938Z,12.40
2022-10-01T00:57:45.503Z,12.30
2022-10-01T00:58:27.456Z,12.10
2022-10-01T00:59:10.938Z,12.20
2022-10-01T00:59:56.827Z,12.80
2022-10-01T01:00:39.362Z,13.10
2022-10-01T01:01:21.715Z,13.10
2022-10-01T01:02:03.923Z,13.10
2022-10-01T01:02:45.752Z,12.00
2022-10-01T01:03:28.205Z,12.10
2022-10-01T01:04:16.305Z,11.90
2022-10-01T01:04:59.207Z,12.90
2022-10-01T01:05:40.893Z,12.00
2022-10-01T01:06:22.527Z,12.00
2022-10-01T01:07:04.990Z,12.00
2022-10-01T01:07:50.198Z,12.00
2022-10-01T01:08:32.418Z,11.90
2022-10-01T01:09:14.374Z,12.50
2022-10-01T01:09:56.830Z,12.00
2022-10-01T01:10:54.496Z,12.40
2022-10-01T01:11:45.829Z,12.00
2022-10-01T01:13:01.992Z,11.90
2022-10-01T01:14:03.495Z,12.20
2022-10-01T01:15:15.998Z,12.10
2022-10-01T01:16:11.054Z,11.90
2022-10-01T01:17:02.687Z,11.90
2022-10-01T01:17:55.762Z,12.10
2022-10-01T01:18:58.039Z,11.80
2022-10-01T01:20:01.506Z,12.00
2022-10-01T01:21:13.234Z,11.80
2022-10-01T01:22:03.107Z,13.30
2022-10-01T01:22:53.796Z,12.20
2022-10-01T01:23:58.687Z,11.90
2022-10-01T01:25:04.858Z,11.90
2022-10-01T01:25:51.341Z,12.70
2022-10-01T01:26:54.480Z,11.90
2022-10-01T01:28:08.271Z,12.00
2022-10-01T01:28:55.087Z,11.90
2022-10-01T01:29:52.967Z,12.00
2022-10-01T01:30:38.992Z,12.10
2022-10-01T01:31:36.363Z,11.90
2022-10-01T01:32:25.284Z,12.00
2022-10-01T01:33:20.399Z,12.10
2022-10-01T01:34:08.456Z,12.50
2022-10-01T01:34:53.190Z,12.40
2022-10-01T01:35:47.054Z,12.90
2022-10-01T01:36:32.263Z,11.80
2022-10-01T01:37:17.498Z,12.00
2022-10-01T01:38:04.311Z,11.90
2022-10-01T01:38:54.804Z,12.80
2022-10-01T01:39:36.980Z,12.30
2022-10-01T01:40:20.887Z,11.80
2022-10-01T01:41:04.365Z,11.70
2022-10-01T01:41:51.502Z,11.70
2022-10-01T01:42:37.178Z,12.00
2022-10-01T01:43:33.262Z,12.80
2022-10-01T01:44:17.619Z,12.00
2022-10-01T01:45:01.747Z,11.60
2022-10-01T01:45:44.487Z,11.80
2022-10-01T01:46:31.931Z,11.60
2022-10-01T01:47:14.325Z,12.00
2022-10-01T01:47:58.171Z,11.60
2022-10-01T01:48:41.727Z,12.10
2022-10-01T01:49:24.117Z,11.60
2022-10-01T01:50:08.108Z,11.70
2022-10-01T01:51:04.762Z,11.80
2022-10-01T01:51:58.358Z,11.70
2022-10-01T01:52:41.200Z,11.70
2022-10-01T01:53:23.776Z,11.80
2022-10-01T01:54:05.522Z,12.00
2022-10-01T01:54:49.668Z,11.90
2022-10-01T01:55:32.346Z,12.40
2022-10-01T01:56:14.121Z,11.70
2022-10-01T01:56:58.196Z,11.80
2022-10-01T01:57:42.585Z,11.80
2022-10-01T01:58:26.150Z,12.20
2022-10-01T01:59:08.502Z,12.70
2022-10-01T01:59:50.171Z,11.80
2022-10-01T02:00:31.805Z,11.90
2022-10-01T02:01:39.922Z,11.70
2022-10-01T02:02:33.162Z,11.70
2022-10-01T02:03:14.910Z,11.60
2022-10-01T02:03:56.754Z,12.10
2022-10-01T02:04:43.690Z,12.20
2022-10-01T02:05:43.213Z,11.80
2022-10-01T02:06:47.067Z,11.70
2022-10-01T02:07:39.425Z,11.70
2022-10-01T02:08:49.735Z,11.90
2022-10-01T02:09:40.361Z,11.80
2022-10-01T02:10:50.241Z,11.70
2022-10-01T02:11:38.914Z,11.70
2022-10-01T02:12:51.383Z,11.60
2022-10-01T02:13:50.371Z,11.80
2022-10-01T02:14:56.755Z,11.90
2022-10-01T02:16:04.195Z,11.70
2022-10-01T02:17:01.998Z,12.00
2022-10-01T02:18:24.082Z,11.90
2022-10-01T02:19:20.970Z,11.70
2022-10-01T02:20:10.116Z,11.60
2022-10-01T02:21:09.894Z,11.60
2022-10-01T02:22:06.868Z,12.00
2022-10-01T02:22:56.985Z,12.00
2022-10-01T02:23:48.059Z,11.60
2022-10-01T02:24:41.737Z,12.70
2022-10-01T02:25:27.602Z,11.60
2022-10-01T02:26:16.085Z,12.60
2022-10-01T02:27:01.334Z,11.90
2022-10-01T02:27:59.151Z,11.70
2022-10-01T02:28:42.383Z,11.70
2022-10-01T02:29:24.897Z,12.00
2022-10-01T02:30:09.578Z,12.70
2022-10-01T02:30:54.380Z,11.70
2022-10-01T02:31:36.470Z,11.90
2022-10-01T02:32:19.345Z,11.60
2022-10-01T02:33:05.319Z,12.10
2022-10-01T02:33:48.365Z,12.10
2022-10-01T02:34:30.970Z,12.00
2022-10-01T02:35:16.110Z,12.30
2022-10-01T02:36:01.113Z,11.80
2022-10-01T02:36:47.831Z,12.00
2022-10-01T02:37:29.652Z,12.20
2022-10-01T02:38:14.896Z,11.90
2022-10-01T02:38:59.238Z,11.80
2022-10-01T02:39:41.644Z,12.70
2022-10-01T02:40:28.535Z,11.80
2022-10-01T02:41:13.634Z,11.90
2022-10-01T02:41:57.881Z,12.10
2022-10-01T02:42:41.327Z,12.00
2022-10-01T02:43:32.140Z,11.80
2022-10-01T02:44:21.302Z,12.50
2022-10-01T02:45:04.885Z,11.60
2022-10-01T02:45:50.505Z,11.80
2022-10-01T02:47:07.684Z,12.90
2022-10-01T02:47:55.676Z,11.70
2022-10-01T02:48:37.359Z,12.00
2022-10-01T02:49:19.633Z,12.10
2022-10-01T02:50:06.493Z,12.10
2022-10-01T02:50:54.070Z,11.70
2022-10-01T02:51:54.232Z,12.20
2022-10-01T02:53:02.646Z,11.70
2022-10-01T02:53:49.096Z,11.90
2022-10-01T02:54:35.044Z,12.00
2022-10-01T02:55:28.620Z,11.80
2022-10-01T02:56:11.626Z,12.60
2022-10-01T02:57:12.171Z,12.20
2022-10-01T02:57:53.884Z,12.80
2022-10-01T02:58:36.341Z,12.20
2022-10-01T02:59:22.394Z,12.10
2022-10-01T03:00:13.574Z,12.20
2022-10-01T03:00:55.263Z,11.90
2022-10-01T03:01:37.677Z,12.50
2022-10-01T03:02:20.530Z,12.20
2022-10-01T03:03:02.240Z,12.10
2022-10-01T03:03:43.857Z,12.10
2022-10-01T03:04:25.483Z,11.90
2022-10-01T03:05:07.868Z,12.00
2022-10-01T03:05:49.493Z,11.60
2022-10-01T03:06:31.170Z,12.20
2022-10-01T03:07:12.790Z,12.30
2022-10-01T03:07:54.414Z,12.40
2022-10-01T03:08:36.476Z,12.50
2022-10-01T03:09:18.139Z,11.60
2022-10-01T03:10:02.785Z,12.20
2022-10-01T03:10:46.708Z,12.10
2022-10-01T03:11:28.660Z,12.00
2022-10-01T03:12:13.073Z,12.20
2022-10-01T03:12:55.643Z,12.50
2022-10-01T03:13:37.304Z,12.00
2022-10-01T03:14:19.045Z,11.90
2022-10-01T03:15:00.789Z,12.10
2022-10-01T03:15:45.399Z,11.90
2022-10-01T03:16:27.357Z,11.90
2022-10-01T03:17:09.093Z,12.20
2022-10-01T03:17:52.069Z,12.20
2022-10-01T03:18:34.874Z,11.80
2022-10-01T03:19:16.758Z,12.10
2022-10-01T03:19:58.395Z,12.10
2022-10-01T03:20:40.064Z,11.90
2022-10-01T03:21:21.686Z,12.10
2022-10-01T03:22:03.501Z,12.20
2022-10-01T03:22:46.724Z,11.70
2022-10-01T03:23:28.354Z,12.20
2022-10-01T03:24:09.997Z,12.30
2022-10-01T03:24:52.734Z,12.40
2022-10-01T03:25:34.461Z,12.00
2022-10-01T03:26:16.095Z,11.80
2022-10-01T03:26:57.958Z,11.90
2022-10-01T03:27:39.602Z,12.10
2022-10-01T03:28:21.301Z,12.20
2022-10-01T03:29:04.343Z,11.90
2022-10-01T03:29:46.097Z,12.40
2022-10-01T03:30:28.404Z,12.50
2022-10-01T03:31:11.666Z,11.80
2022-10-01T03:31:54.174Z,12.90
2022-10-01T03:32:36.037Z,11.80
2022-10-01T03:33:17.653Z,12.80
2022-10-01T03:34:00.300Z,11.70
2022-10-01T03:34:42.082Z,12.30
2022-10-01T03:35:24.897Z,12.20
2022-10-01T03:36:06.809Z,11.70
2022-10-01T03:36:48.824Z,11.70
2022-10-01T03:37:30.480Z,12.00
2022-10-01T03:38:13.701Z,12.00
2022-10-01T03:38:55.742Z,11.90
2022-10-01T03:39:37.497Z,11.80
2022-10-01T03:40:19.316Z,12.00
2022-10-01T03:41:03.520Z,12.10
2022-10-01T03:41:48.441Z,12.20
2022-10-01T03:42:30.081Z,12.30
2022-10-01T03:43:12.165Z,12.30
2022-10-01T03:43:58.305Z,12.10
2022-10-01T03:44:42.426Z,11.80
2022-10-01T03:45:24.144Z,12.10
2022-10-01T03:46:06.010Z,11.40
2022-10-01T03:46:47.991Z,11.70
2022-10-01T03:47:29.624Z,12.00
2022-10-01T03:48:11.256Z,12.20
2022-10-01T03:48:52.986Z,11.60
2022-10-01T03:49:35.401Z,11.90
2022-10-01T03:50:17.039Z,12.60
2022-10-01T03:50:59.594Z,12.00
2022-10-01T03:51:41.306Z,11.50
2022-10-01T03:52:23.014Z,12.10
2022-10-01T03:53:06.400Z,12.30
2022-10-01T03:53:48.248Z,12.50
2022-10-01T03:54:32.830Z,12.20
2022-10-01T03:55:14.521Z,12.20
2022-10-01T03:55:56.226Z,11.70
2022-10-01T03:56:40.811Z,12.60
2022-10-01T03:57:22.533Z,11.90
2022-10-01T03:58:07.206Z,12.80
2022-10-01T03:58:48.907Z,12.20
2022-10-01T03:59:30.555Z,12.10
2022-10-01T04:00:13.963Z,12.00
2022-10-01T04:00:55.948Z,11.30
2022-10-01T04:01:39.176Z,11.60
2022-10-01T04:02:21.934Z,12.20
2022-10-01T04:03:03.839Z,12.00
2022-10-01T04:03:45.527Z,11.70
2022-10-01T04:04:28.926Z,11.90
2022-10-01T04:05:10.690Z,12.00
2022-10-01T04:05:52.365Z,12.00
2022-10-01T04:06:34.161Z,12.00
2022-10-01T04:07:15.786Z,12.00
2022-10-01T04:07:59.618Z,12.10
2022-10-01T04:08:41.311Z,12.70
2022-10-01T04:09:22.939Z,12.10
2022-10-01T04:10:04.946Z,12.60
2022-10-01T04:10:46.578Z,11.80
2022-10-01T04:11:28.291Z,11.80
2022-10-01T04:12:09.949Z,12.90
2022-10-01T04:12:51.823Z,12.10
2022-10-01T04:13:34.562Z,12.10
2022-10-01T04:14:18.835Z,11.80
2022-10-01T04:15:00.492Z,11.90
2022-10-01T04:15:42.380Z,11.80
2022-10-01T04:16:24.883Z,12.60
2022-10-01T04:17:06.591Z,11.70
2022-10-01T04:17:49.177Z,12.00
2022-10-01T04:18:33.304Z,11.90
2022-10-01T04:19:15.037Z,11.70
2022-10-01T04:19:57.685Z,12.10
2022-10-01T04:20:39.382Z,12.00
2022-10-01T04:21:21.133Z,12.10
2022-10-01T04:22:02.767Z,12.50
2022-10-01T04:22:44.868Z,12.00
2022-10-01T04:23:27.027Z,12.20
2022-10-01T04:24:08.638Z,12.40
2022-10-01T04:24:50.263Z,12.10
2022-10-01T04:25:32.368Z,12.10
2022-10-01T04:26:14.001Z,12.40
2022-10-01T04:26:55.663Z,12.20
2022-10-01T04:27:38.697Z,12.40
2022-10-01T04:28:20.456Z,12.30
2022-10-01T04:29:02.198Z,12.00
2022-10-01T04:29:43.861Z,12.40
2022-10-01T04:30:27.853Z,12.50
2022-10-01T04:31:24.931Z,11.50
2022-10-01T04:32:07.093Z,11.70
2022-10-01T04:32:48.867Z,11.60
2022-10-01T04:33:30.504Z,11.70
2022-10-01T04:34:12.144Z,11.70
2022-10-01T04:34:53.898Z,11.80
2022-10-01T04:35:36.363Z,11.70
2022-10-01T04:36:18.029Z,12.30
2022-10-01T04:36:59.653Z,12.20
2022-10-01T04:37:41.325Z,11.70
2022-10-01T04:38:22.986Z,11.70
2022-10-01T04:39:05.188Z,11.50
2022-10-01T04:39:47.697Z,12.00
2022-10-01T04:40:30.337Z,11.80
2022-10-01T04:41:13.687Z,12.00
2022-10-01T04:41:55.436Z,12.10
2022-10-01T04:42:44.468Z,11.90
2022-10-01T04:43:26.240Z,12.10
2022-10-01T04:44:07.886Z,11.60
2022-10-01T04:44:49.549Z,11.60
2022-10-01T04:45:32.176Z,11.70
2022-10-01T04:46:14.267Z,12.10
2022-10-01T04:46:56.017Z,11.90
2022-10-01T04:47:37.848Z,12.20
2022-10-01T04:48:19.623Z,11.70
2022-10-01T04:49:01.255Z,11.70
2022-10-01T04:49:42.917Z,11.70
2022-10-01T04:50:26.574Z,11.80
2022-10-01T04:51:08.508Z,11.80
2022-10-01T04:51:50.126Z,11.80
2022-10-01T04:52:31.772Z,11.80
2022-10-01T04:53:13.405Z,11.90
2022-10-01T04:53:55.547Z,12.30
2022-10-01T04:54:37.248Z,12.00
2022-10-01T04:55:20.311Z,11.70
2022-10-01T04:56:04.784Z,11.80
2022-10-01T04:56:46.399Z,11.80
2022-10-01T04:57:28.434Z,11.60
2022-10-01T04:58:10.293Z,13.20
2022-10-01T04:58:51.982Z,12.30
2022-10-01T04:59:33.794Z,11.70
2022-10-01T05:00:18.977Z,12.60
2022-10-01T05:01:02.164Z,11.80
2022-10-01T05:01:44.245Z,11.80
2022-10-01T05:02:26.038Z,12.00
2022-10-01T05:03:10.806Z,11.80
2022-10-01T05:03:52.626Z,11.70
2022-10-01T05:04:34.268Z,11.80
2022-10-01T05:05:17.972Z,11.60
2022-10-01T05:05:59.702Z,11.80
2022-10-01T05:06:41.465Z,11.80
2022-10-01T05:07:23.119Z,11.80
2022-10-01T05:08:04.840Z,11.60
2022-10-01T05:08:48.722Z,12.10
2022-10-01T05:09:30.356Z,12.00
2022-10-01T05:10:15.722Z,11.90
2022-10-01T05:11:00.380Z,12.00
2022-10-01T05:11:42.137Z,11.70
2022-10-01T05:12:25.359Z,11.60
2022-10-01T05:13:07.034Z,11.70
2022-10-01T05:13:48.660Z,11.70
2022-10-01T05:14:31.288Z,11.90
2022-10-01T05:15:13.639Z,11.80
2022-10-01T05:15:55.311Z,11.80
2022-10-01T05:16:37.719Z,12.00
2022-10-01T05:17:19.821Z,11.70
2022-10-01T05:18:01.555Z,11.90
2022-10-01T05:18:43.460Z,11.80
2022-10-01T05:19:28.912Z,11.80
2022-10-01T05:20:17.113Z,12.00
2022-10-01T05:20:59.065Z,11.80
2022-10-01T05:21:43.893Z,11.80
2022-10-01T05:22:25.612Z,12.10
2022-10-01T05:23:07.265Z,12.20
2022-10-01T05:23:48.901Z,12.10
2022-10-01T05:24:32.453Z,11.80
2022-10-01T05:25:14.536Z,12.10
2022-10-01T05:25:56.166Z,11.80
2022-10-01T05:26:39.127Z,11.40
2022-10-01T05:27:20.936Z,11.80
2022-10-01T05:28:05.237Z,11.80
2022-10-01T05:28:47.167Z,11.90
2022-10-01T05:29:28.840Z,12.40
2022-10-01T05:30:12.585Z,11.90
2022-10-01T05:30:54.240Z,11.80
2022-10-01T05:31:36.176Z,11.90
2022-10-01T05:32:18.248Z,11.60
2022-10-01T05:33:02.270Z,11.90
2022-10-01T05:33:43.911Z,11.80
2022-10-01T05:34:25.554Z,11.80
2022-10-01T05:35:08.258Z,12.00
2022-10-01T05:35:50.611Z,11.80
2022-10-01T05:36:32.232Z,11.90
2022-10-01T05:37:14.661Z,11.90
2022-10-01T05:37:58.054Z,11.90
2022-10-01T05:38:39.715Z,11.90
2022-10-01T05:39:21.374Z,12.50
2022-10-01T05:40:03.912Z,11.80
2022-10-01T05:40:46.432Z,11.90
2022-10-01T05:41:28.076Z,11.90
2022-10-01T05:42:09.737Z,11.90
2022-10-01T05:42:51.419Z,11.90
2022-10-01T05:43:33.142Z,12.00
2022-10-01T05:44:14.810Z,12.00
2022-10-01T05:44:56.777Z,11.80
2022-10-01T05:45:39.008Z,11.90
2022-10-01T05:46:20.775Z,11.90
2022-10-01T05:47:03.502Z,12.00
2022-10-01T05:47:45.130Z,12.20
2022-10-01T05:48:26.836Z,12.10
2022-10-01T05:49:08.659Z,12.00
2022-10-01T05:49:50.299Z,12.10
2022-10-01T05:50:34.191Z,11.90
2022-10-01T05:51:16.381Z,11.90
2022-10-01T05:52:00.314Z,11.80
2022-10-01T05:52:51.121Z,11.90
2022-10-01T05:53:33.082Z,12.20
2022-10-01T05:54:16.161Z,11.90
2022-10-01T05:54:59.242Z,11.80
2022-10-01T05:55:40.907Z,12.00
2022-10-01T05:56:23.460Z,12.20
2022-10-01T05:57:06.279Z,12.00
2022-10-01T05:57:57.447Z,12.00
2022-10-01T05:58:39.114Z,12.30
2022-10-01T05:59:20.782Z,12.30
2022-10-01T06:00:02.565Z,12.00
2022-10-01T06:00:44.492Z,12.00
2022-10-01T06:01:26.171Z,11.90
2022-10-01T06:02:09.905Z,11.90
2022-10-01T06:02:52.959Z,11.90
2022-10-01T06:03:34.818Z,11.90
2022-10-01T06:04:19.297Z,11.70
2022-10-01T06:05:00.927Z,12.50
2022-10-01T06:05:44.660Z,12.30
2022-10-01T06:06:27.562Z,12.10
2022-10-01T06:07:09.255Z,12.10
2022-10-01T06:07:51.895Z,12.10
2022-10-01T06:08:37.683Z,12.00
2022-10-01T06:09:19.329Z,12.10
2022-10-01T06:10:03.041Z,12.10
2022-10-01T06:10:44.715Z,12.10
2022-10-01T06:11:27.071Z,12.30
2022-10-01T06:12:09.717Z,12.00
2022-10-01T06:12:51.845Z,12.30
2022-10-01T06:13:35.746Z,12.20
2022-10-01T06:14:17.396Z,12.10
2022-10-01T06:14:59.055Z,12.10
2022-10-01T06:15:40.734Z,12.20
2022-10-01T06:16:22.531Z,12.20
2022-10-01T06:17:04.204Z,12.20
2022-10-01T06:17:46.764Z,12.20
2022-10-01T06:18:28.410Z,12.20
2022-10-01T06:19:10.123Z,12.20
2022-10-01T06:19:51.798Z,12.00
2022-10-01T06:20:33.618Z,12.20
2022-10-01T06:21:15.869Z,12.20
2022-10-01T06:21:57.522Z,12.20
2022-10-01T06:22:40.819Z,12.20
2022-10-01T06:23:23.111Z,12.20
2022-10-01T06:24:05.716Z,12.10
2022-10-01T06:24:47.387Z,12.20
2022-10-01T06:25:29.710Z,12.40
2022-10-01T06:26:11.477Z,12.20
2022-10-01T06:26:53.186Z,12.10
2022-10-01T06:27:34.924Z,12.50
2022-10-01T06:28:16.634Z,12.30
2022-10-01T06:28:58.319Z,13.30
2022-10-01T06:29:39.960Z,12.30
2022-10-01T06:30:22.043Z,12.30
2022-10-01T06:31:04.301Z,12.30
2022-10-01T06:31:46.100Z,12.30
2022-10-01T06:32:30.517Z,12.30
2022-10-01T06:33:16.689Z,12.20
2022-10-01T06:33:58.351Z,12.30
2022-10-01T06:34:40.974Z,12.60
2022-10-01T06:35:22.609Z,12.40
2022-10-01T06:36:04.967Z,12.80
2022-10-01T06:36:46.629Z,12.30
2022-10-01T06:37:28.682Z,13.10
2022-10-01T06:38:11.391Z,12.30
2022-10-01T06:38:53.115Z,12.40
2022-10-01T06:39:34.772Z,12.90
2022-10-01T06:40:16.457Z,12.40
2022-10-01T06:40:59.857Z,12.30
2022-10-01T06:41:43.430Z,12.20
2022-10-01T06:42:25.303Z,12.20
2022-10-01T06:43:10.052Z,13.00
2022-10-01T06:43:51.794Z,12.70
2022-10-01T06:44:33.488Z,12.50
2022-10-01T06:45:16.345Z,12.60
2022-10-01T06:46:02.383Z,12.50
2022-10-01T06:46:44.051Z,12.40
2022-10-01T06:47:25.714Z,12.40
2022-10-01T06:48:07.475Z,12.30
2022-10-01T06:48:49.767Z,12.40
2022-10-01T06:49:34.028Z,13.50
2022-10-01T06:50:15.701Z,12.40
2022-10-01T06:50:58.796Z,12.40
2022-10-01T06:51:59.158Z,12.50
2022-10-01T06:52:49.919Z,12.10
2022-10-01T06:53:32.157Z,12.50
2022-10-01T06:54:14.538Z,12.40
2022-10-01T06:54:56.302Z,12.60
2022-10-01T06:55:38.871Z,12.70
2022-10-01T06:56:20.535Z,12.40
2022-10-01T06:57:02.187Z,12.40
2022-10-01T06:57:44.691Z,12.40
2022-10-01T06:58:26.421Z,12.30
2022-10-01T06:59:08.075Z,12.70
2022-10-01T06:59:49.694Z,12.70
2022-10-01T07:00:33.617Z,12.50
2022-10-01T07:01:19.650Z,12.50
2022-10-01T07:02:03.909Z,12.40
2022-10-01T07:02:45.635Z,12.60
2022-10-01T07:03:27.959Z,13.30
2022-10-01T07:04:09.636Z,12.80
2022-10-01T07:04:51.342Z,12.50
2022-10-01T07:05:32.991Z,12.50
2022-10-01T07:06:14.619Z,12.60
2022-10-01T07:06:57.453Z,12.60
2022-10-01T07:07:39.391Z,12.70
2022-10-01T07:08:22.413Z,12.60
2022-10-01T07:09:04.181Z,12.70
2022-10-01T07:09:48.219Z,13.00
2022-10-01T07:10:30.270Z,12.60
2022-10-01T07:11:11.975Z,12.60
2022-10-01T07:11:53.967Z,12.70
2022-10-01T07:12:36.637Z,12.60
2022-10-01T07:13:20.249Z,12.70
2022-10-01T07:14:01.992Z,12.70
2022-10-01T07:14:43.624Z,12.90
2022-10-01T07:15:25.644Z,12.70
2022-10-01T07:16:07.435Z,13.10
2022-10-01T07:16:49.237Z,12.80
2022-10-01T07:17:31.127Z,12.60
2022-10-01T07:18:13.750Z,12.70
2022-10-01T07:18:55.412Z,12.80
2022-10-01T07:19:37.147Z,12.60
2022-10-01T07:20:20.441Z,12.90
2022-10-01T07:21:02.095Z,12.80
2022-10-01T07:21:43.839Z,13.50
2022-10-01T07:22:25.937Z,12.80
2022-10-01T07:23:11.352Z,12.90
2022-10-01T07:23:53.112Z,12.90
2022-10-01T07:24:34.980Z,12.90
2022-10-01T07:25:19.294Z,12.90
2022-10-01T07:26:03.294Z,12.90
2022-10-01T07:26:44.985Z,12.90
2022-10-01T07:27:26.640Z,13.10
2022-10-01T07:28:16.420Z,12.90
2022-10-01T07:28:58.528Z,13.00
2022-10-01T07:29:41.693Z,13.30
2022-10-01T07:30:24.094Z,12.90
2022-10-01T07:31:09.678Z,13.00
2022-10-01T07:31:59.831Z,12.90
2022-10-01T07:32:44.908Z,13.00
2022-10-01T07:33:26.934Z,13.40
2022-10-01T07:34:08.569Z,12.80
2022-10-01T07:34:50.862Z,13.00
2022-10-01T07:35:32.591Z,12.90
2022-10-01T07:36:14.516Z,13.20
2022-10-01T07:36:56.342Z,13.00
2022-10-01T07:37:40.244Z,13.20
2022-10-01T07:38:22.070Z,13.10
2022-10-01T07:39:03.838Z,13.10
2022-10-01T07:39:45.475Z,13.10
2022-10-01T07:40:27.131Z,13.10
2022-10-01T07:41:09.924Z,13.10
2022-10-01T07:41:51.822Z,13.20
2022-10-01T07:42:33.469Z,13.00
2022-10-01T07:43:15.203Z,13.00
2022-10-01T07:43:56.857Z,13.10
2022-10-01T07:44:38.518Z,13.00
2022-10-01T07:45:21.883Z,13.10
2022-10-01T07:46:05.533Z,13.20
2022-10-01T07:46:48.397Z,13.20
2022-10-01T07:47:30.251Z,13.20
2022-10-01T07:48:11.881Z,13.20
2022-10-01T07:48:54.031Z,13.40
2022-10-01T07:49:35.658Z,13.30
2022-10-01T07:50:17.328Z,13.20
2022-10-01T07:50:59.014Z,13.20
2022-10-01T07:51:43.361Z,13.30
2022-10-01T07:52:25.061Z,13.30
2022-10-01T07:53:06.707Z,13.30
2022-10-01T07:53:48.435Z,13.40
2022-10-01T07:54:30.142Z,13.20
2022-10-01T07:55:14.122Z,13.40
2022-10-01T07:55:56.054Z,13.50
2022-10-01T07:56:38.031Z,13.30
2022-10-01T07:57:19.711Z,13.40
2022-10-01T07:58:02.010Z,13.30
2022-10-01T07:58:43.701Z,13.40
2022-10-01T07:59:27.279Z,13.40
2022-10-01T08:00:09.385Z,13.40
2022-10-01T08:00:55.849Z,13.40
2022-10-01T08:01:38.250Z,13.30
2022-10-01T08:02:22.047Z,13.40
2022-10-01T08:03:04.402Z,13.30
2022-10-01T08:03:49.882Z,13.80
2022-10-01T08:04:52.684Z,13.50
2022-10-01T08:05:36.028Z,13.40
2022-10-01T08:06:25.374Z,13.60
2022-10-01T08:07:08.609Z,13.80
2022-10-01T08:07:51.080Z,13.50
2022-10-01T08:08:33.030Z,13.60
2022-10-01T08:09:15.464Z,13.50
2022-10-01T08:09:59.140Z,13.50
2022-10-01T08:10:41.261Z,13.40
2022-10-01T08:11:24.600Z,13.50
2022-10-01T08:12:06.290Z,13.40
2022-10-01T08:12:47.935Z,13.60
2022-10-01T08:13:29.575Z,13.90
2022-10-01T08:14:15.015Z,13.80
2022-10-01T08:14:57.968Z,13.60
2022-10-01T08:15:40.257Z,13.60
2022-10-01T08:16:28.988Z,13.60
2022-10-01T08:17:10.778Z,13.40
2022-10-01T08:17:52.463Z,13.50
2022-10-01T08:18:34.346Z,13.60
2022-10-01T08:19:17.078Z,13.60
2022-10-01T08:19:58.728Z,13.60
2022-10-01T08:20:40.607Z,13.80
2022-10-01T08:21:22.266Z,13.60
2022-10-01T08:22:03.924Z,13.60
2022-10-01T08:22:45.619Z,13.60
2022-10-01T08:23:27.521Z,13.80
2022-10-01T08:24:09.534Z,13.70
2022-10-01T08:24:51.261Z,13.70
2022-10-01T08:25:33.405Z,13.30
2022-10-01T08:26:15.069Z,13.80
2022-10-01T08:26:57.692Z,13.70
2022-10-01T08:27:39.361Z,12.00
2022-10-01T08:28:21.032Z,13.70
2022-10-01T08:29:05.446Z,13.70
2022-10-01T08:29:48.167Z,13.80
2022-10-01T08:30:30.290Z,14.10
2022-10-01T08:31:11.961Z,13.60
2022-10-01T08:31:54.928Z,13.60
2022-10-01T08:32:36.646Z,13.60
2022-10-01T08:33:18.348Z,13.70
2022-10-01T08:34:00.042Z,13.50
2022-10-01T08:34:41.708Z,13.60
2022-10-01T08:35:24.735Z,13.60
2022-10-01T08:36:09.997Z,13.70
2022-10-01T08:36:52.029Z,13.70
2022-10-01T08:37:33.734Z,13.70
2022-10-01T08:38:16.056Z,13.70
2022-10-01T08:38:57.690Z,13.70
2022-10-01T08:39:39.412Z,13.80
2022-10-01T08:40:21.721Z,13.80
2022-10-01T08:41:33.323Z,13.50
2022-10-01T08:42:26.155Z,13.70
2022-10-01T08:43:17.995Z,14.30
2022-10-01T08:44:02.420Z,13.80
2022-10-01T08:44:46.433Z,13.80
2022-10-01T08:45:41.793Z,14.10
2022-10-01T08:46:27.700Z,13.80
2022-10-01T08:47:31.246Z,13.90
2022-10-01T08:48:35.080Z,14.00
2022-10-01T08:49:20.714Z,14.00
2022-10-01T08:50:18.852Z,14.10
2022-10-01T08:51:13.275Z,14.10
2022-10-01T08:52:07.280Z,14.10
2022-10-01T08:52:54.508Z,14.20
2022-10-01T08:53:38.979Z,14.20
2022-10-01T08:54:28.049Z,14.40
2022-10-01T08:55:21.030Z,14.30
2022-10-01T08:56:04.204Z,14.30
2022-10-01T08:56:47.887Z,14.30
2022-10-01T08:57:34.263Z,14.40
2022-10-01T08:58:23.566Z,14.20
2022-10-01T08:59:24.057Z,14.30
2022-10-01T09:00:17.198Z,14.30
2022-10-01T09:00:58.959Z,14.30
2022-10-01T09:01:40.691Z,14.30
2022-10-01T09:02:24.534Z,14.40
2022-10-01T09:03:10.522Z,14.40
2022-10-01T09:03:53.229Z,14.60
2022-10-01T09:04:35.049Z,14.30
2022-10-01T09:05:27.122Z,14.30
2022-10-01T09:06:11.541Z,14.40
2022-10-01T09:07:08.817Z,14.40
2022-10-01T09:07:59.064Z,14.30
2022-10-01T09:08:56.852Z,14.30
2022-10-01T09:10:17.298Z,14.40
2022-10-01T09:11:07.122Z,14.30
2022-10-01T09:12:02.100Z,14.30
2022-10-01T09:13:14.295Z,14.30
2022-10-01T09:14:13.892Z,14.40
2022-10-01T09:15:18.465Z,14.40
2022-10-01T09:16:28.497Z,14.40
2022-10-01T09:17:21.952Z,14.40
2022-10-01T09:18:27.332Z,14.30
2022-10-01T09:19:27.015Z,14.40
2022-10-01T09:20:29.065Z,14.40
2022-10-01T09:21:21.021Z,14.40
2022-10-01T09:22:19.812Z,14.40
2022-10-01T09:23:33.724Z,14.40
2022-10-01T09:24:24.804Z,14.50
2022-10-01T09:25:27.139Z,14.50
2022-10-01T09:26:11.776Z,14.50
2022-10-01T09:26:54.132Z,14.50
2022-10-01T09:27:38.096Z,14.70
2022-10-01T09:28:27.475Z,14.60
2022-10-01T09:29:15.832Z,14.60
2022-10-01T09:30:04.370Z,14.70
2022-10-01T09:30:54.795Z,14.60
2022-10-01T09:31:45.161Z,14.70
2022-10-01T09:32:45.019Z,14.60
2022-10-01T09:33:33.550Z,14.70
2022-10-01T09:34:23.733Z,14.70
2022-10-01T09:35:31.323Z,14.80
2022-10-01T09:36:40.354Z,14.90
2022-10-01T09:37:30.322Z,15.00
2022-10-01T09:38:33.194Z,15.10
2022-10-01T09:39:25.008Z,15.10
2022-10-01T09:40:33.675Z,15.30
2022-10-01T09:41:16.101Z,15.30
2022-10-01T09:41:59.678Z,15.40